Time;durP1;ratioP1;P1;durP2;ratioP2;P2;SDS_P1;SDS_P2;PMS_P1;PMS_P2;Temp;Humidity;BMP_temperature;BMP_pressure;BME280_temperature;BME280_humidity;BME280_pressure;Samples;Min_cycle;Max_cycle;Signal;HPM_P1;HPM_P2
2022/06/03 00:02:29;;;;;;;2.83;1.23;;;15.90;71.70;;;;;;4980197;28;95864;-62
2022/06/03 00:05:10;;;;;;;2.83;1.73;;;16.00;71.80;;;;;;4985027;28;95898;-57
2022/06/03 00:08:00;;;;;;;4.28;1.23;;;16.10;71.80;;;;;;4970579;28;95843;-65
2022/06/03 00:10:43;;;;;;;2.83;1.20;;;16.20;71.80;;;;;;4985412;28;95823;-55
2022/06/03 00:13:27;;;;;;;2.05;1.30;;;16.20;71.80;;;;;;4984646;28;96075;-56
2022/06/03 00:16:10;;;;;;;2.22;1.25;;;16.30;70.00;;;;;;4960085;28;96201;-61
2022/06/03 00:19:04;;;;;;;2.58;1.63;;;16.30;71.50;;;;;;4983223;28;95647;-61
2022/06/03 00:21:45;;;;;;;1.48;1.35;;;16.30;71.50;;;;;;4987578;28;96460;-58
2022/06/03 00:24:43;;;;;;;4.45;1.25;;;16.30;71.50;;;;;;4981327;28;96182;-62
2022/06/03 00:27:41;;;;;;;2.10;1.23;;;16.40;71.50;;;;;;4989878;28;95896;-48
2022/06/03 00:30:27;;;;;;;1.90;1.35;;;16.40;71.40;;;;;;4985419;28;95300;-51
2022/06/03 00:33:19;;;;;;;1.30;1.15;;;16.40;71.40;;;;;;4985388;28;96069;-56
2022/06/03 00:36:26;;;;;;;1.98;1.27;;;16.40;71.20;;;;;;4986188;28;96430;-55
2022/06/03 00:39:18;;;;;;;1.42;1.15;;;16.40;71.10;;;;;;4982250;28;95642;-59
2022/06/03 00:42:26;;;;;;;1.50;1.02;;;16.40;71.00;;;;;;4985832;28;96015;-52
2022/06/03 00:45:49;;;;;;;1.52;1.30;;;16.50;71.20;;;;;;4982281;28;95838;-45
2022/06/03 00:48:25;;;;;;;3.13;1.25;;;16.50;71.20;;;;;;4946422;28;102844;-59
2022/06/03 00:51:10;;;;;;;1.23;1.13;;;16.50;71.10;;;;;;4982111;28;95903;-45
2022/06/03 00:54:10;;;;;;;3.25;1.60;;;16.50;71.10;;;;;;4982221;28;95683;-40
2022/06/03 00:57:02;;;;;;;2.72;1.15;;;16.50;70.80;;;;;;4965091;28;95999;-48
2022/06/03 00:59:38;;;;;;;;;;;16.60;70.70;;;;;;4979350;28;96231;-52
2022/06/03 01:02:33;;;;;;;2.08;1.30;;;16.60;70.60;;;;;;4977707;28;96235;-51
2022/06/03 01:05:21;;;;;;;1.63;1.10;;;16.60;70.50;;;;;;4984601;28;95760;-59
2022/06/03 01:08:18;;;;;;;1.80;1.25;;;16.60;70.30;;;;;;4983004;28;95353;-56
2022/06/03 01:11:14;;;;;;;1.52;1.00;;;16.70;70.40;;;;;;4985464;28;96190;-57
2022/06/03 01:14:28;;;;;;;3.20;1.17;;;16.70;70.30;;;;;;4984828;28;96054;-55
2022/06/03 01:17:22;;;;;;;1.23;1.10;;;16.70;70.20;;;;;;4957307;28;97661;-54
2022/06/03 01:20:00;;;;;;;;;;;16.80;70.00;;;;;;4984538;28;95973;-54
2022/06/03 01:22:51;;;;;;;4.38;1.00;;;16.70;69.60;;;;;;4980742;28;96459;-48
2022/06/03 01:25:46;;;;;;;2.30;1.42;;;16.80;69.80;;;;;;4982331;28;96443;-51
2022/06/03 01:28:24;;;;;;;1.77;1.02;;;16.80;69.50;;;;;;4976361;28;95972;-54
2022/06/03 01:31:31;;;;;;;1.67;1.05;;;16.80;69.70;;;;;;4969361;28;95895;-48
2022/06/03 01:34:34;;;;;;;2.97;1.00;;;16.90;69.30;;;;;;4981384;28;96134;-55
2022/06/03 01:37:11;;;;;;;1.88;1.20;;;16.90;69.50;;;;;;4984059;28;95639;-57
2022/06/03 01:39:58;;;;;;;2.97;1.27;;;16.90;69.60;;;;;;4985690;28;95438;-54
2022/06/03 01:42:59;;;;;;;3.08;1.00;;;16.90;69.60;;;;;;4985016;28;95690;-56
2022/06/03 01:45:47;;;;;;;1.63;0.90;;;17.00;69.60;;;;;;4961774;28;96278;-51
2022/06/03 01:48:36;;;;;;;1.35;1.15;;;17.00;69.50;;;;;;4981886;28;96369;-56
2022/06/03 01:51:13;;;;;;;0.98;0.98;;;17.00;69.50;;;;;;4985028;28;95805;-54
2022/06/03 01:54:28;;;;;;;1.48;1.00;;;17.00;69.30;;;;;;4984818;28;96027;-54
2022/06/03 01:57:38;;;;;;;3.80;1.33;;;17.00;69.30;;;;;;4984818;28;96734;-51
2022/06/03 02:00:38;;;;;;;1.73;1.20;;;17.00;69.10;;;;;;4986431;28;95484;-55
2022/06/03 02:03:17;;;;;;;2.42;1.23;;;17.10;69.10;;;;;;4960402;28;96176;-48
2022/06/03 02:05:59;;;;;;;1.55;0.90;;;17.10;69.10;;;;;;4990751;28;96972;-58
2022/06/03 02:08:38;;;;;;;2.67;1.63;;;17.10;69.00;;;;;;4987183;28;95946;-45
2022/06/03 02:11:30;;;;;;;2.78;1.52;;;17.10;68.60;;;;;;4986052;28;95809;-57
2022/06/03 02:14:35;;;;;;;2.75;1.85;;;17.10;68.60;;;;;;4986220;28;95846;-58
2022/06/03 02:17:31;;;;;;;1.75;1.10;;;17.10;68.40;;;;;;4985444;28;95948;-58
2022/06/03 02:20:42;;;;;;;3.17;1.63;;;17.10;68.40;;;;;;4983665;28;96449;-56
2022/06/03 02:23:28;;;;;;;3.97;1.43;;;17.20;68.40;;;;;;4986087;28;96852;-56
2022/06/03 02:26:11;;;;;;;2.80;1.35;;;17.20;68.40;;;;;;4986483;28;95341;-56
2022/06/03 02:30:24;;;;;;;4.03;1.42;;;17.20;68.40;;;;;;4988056;28;95911;-55
2022/06/03 02:32:27;;;;;;;1.83;1.43;;;17.20;67.00;;;;;;4982183;28;96090;-56
2022/06/03 02:35:31;;;;;;;1.65;1.25;;;17.20;68.60;;;;;;4986870;28;95545;-56
2022/06/03 02:38:14;;;;;;;3.05;1.38;;;17.20;68.50;;;;;;4986109;28;96830;-56
2022/06/03 02:40:56;;;;;;;3.67;1.50;;;17.20;68.40;;;;;;4988115;28;95732;-44
2022/06/03 02:43:57;;;;;;;2.88;1.40;;;17.20;68.40;;;;;;4986308;28;96581;-47
2022/06/03 02:46:59;;;;;;;1.52;1.23;;;17.20;67.00;;;;;;4974477;28;96357;-46
2022/06/03 02:49:56;;;;;;;1.95;1.10;;;17.20;68.50;;;;;;4971162;28;98356;-54
2022/06/03 02:53:05;;;;;;;2.83;1.25;;;17.30;68.70;;;;;;4963161;28;95260;-44
2022/06/03 02:55:52;;;;;;;4.70;1.38;;;17.20;68.80;;;;;;4973269;28;95891;-45
2022/06/03 02:58:48;;;;;;;2.88;1.20;;;17.30;68.60;;;;;;4970905;28;95946;-46
2022/06/03 03:01:48;;;;;;;1.55;1.13;;;17.30;68.70;;;;;;4961158;28;96477;-49
2022/06/03 03:04:28;;;;;;;1.95;1.05;;;17.30;68.50;;;;;;4962810;28;95980;-46
2022/06/03 03:07:32;;;;;;;0.98;0.82;;;17.30;68.80;;;;;;4964457;28;96260;-48
2022/06/03 03:10:49;;;;;;;1.20;0.95;;;17.40;69.00;;;;;;4966193;28;96015;-54
2022/06/03 03:13:42;;;;;;;1.98;0.85;;;17.40;69.10;;;;;;4943369;28;95799;-48
2022/06/03 03:16:26;;;;;;;3.75;1.40;;;17.40;69.20;;;;;;4958321;28;96712;-43
2022/06/03 03:19:10;;;;;;;1.02;0.82;;;17.50;69.40;;;;;;4964734;28;95975;-45
2022/06/03 03:22:11;;;;;;;1.70;0.93;;;17.50;69.40;;;;;;4965606;28;96084;-46
2022/06/03 03:25:28;;;;;;;1.42;0.90;;;17.60;69.60;;;;;;4965788;28;95826;-45
2022/06/03 03:28:40;;;;;;;2.05;0.80;;;17.60;69.60;;;;;;4964985;28;95402;-53
2022/06/03 03:31:34;;;;;;;1.10;0.88;;;17.70;69.60;;;;;;4958846;28;96383;-47
2022/06/03 03:34:20;;;;;;;1.25;0.80;;;17.70;69.80;;;;;;4945965;28;96216;-55
2022/06/03 03:37:28;;;;;;;0.80;0.65;;;17.70;69.80;;;;;;4964933;28;98729;-55
2022/06/03 03:40:22;;;;;;;1.27;0.73;;;17.80;70.00;;;;;;4966448;28;96498;-61
2022/06/03 03:43:26;;;;;;;1.75;0.65;;;17.80;70.00;;;;;;4964655;28;96240;-56
2022/06/03 03:46:30;;;;;;;1.48;0.93;;;17.90;70.00;;;;;;4958854;28;95936;-53
2022/06/03 03:49:26;;;;;;;1.27;0.95;;;17.90;68.70;;;;;;4963866;28;96630;-55
2022/06/03 03:52:16;;;;;;;1.58;0.82;;;17.90;70.10;;;;;;4962139;28;96116;-49
2022/06/03 03:55:05;;;;;;;0.80;0.60;;;17.90;70.10;;;;;;4964927;28;96603;-47
2022/06/03 03:58:04;;;;;;;1.02;0.93;;;18.00;70.10;;;;;;4966335;28;95826;-45
2022/06/03 04:00:57;;;;;;;1.67;0.80;;;18.00;70.10;;;;;;4958381;28;96142;-54
2022/06/03 04:03:55;;;;;;;1.27;0.93;;;18.00;70.10;;;;;;4965332;28;96604;-60
2022/06/03 04:07:06;;;;;;;3.17;0.90;;;18.00;68.40;;;;;;4964907;28;97517;-58
2022/06/03 04:10:02;;;;;;;1.48;0.70;;;17.90;68.60;;;;;;4961414;28;95506;-47
2022/06/03 04:12:55;;;;;;;0.82;0.68;;;17.80;68.50;;;;;;4965315;28;95751;-49
2022/06/03 04:16:03;;;;;;;0.90;0.80;;;17.90;69.00;;;;;;4959703;28;96696;-49
2022/06/03 04:19:12;;;;;;;0.85;0.75;;;18.00;69.20;;;;;;4964985;28;98620;-45
2022/06/03 04:21:48;;;;;;;0.95;0.60;;;18.00;69.30;;;;;;4961332;28;96275;-49
2022/06/03 04:24:56;;;;;;;0.60;0.60;;;18.10;69.60;;;;;;4962516;28;96158;-48
2022/06/03 04:27:59;;;;;;;1.45;0.68;;;18.10;69.80;;;;;;4964245;28;95857;-53
2022/06/03 04:31:08;;;;;;;0.68;0.63;;;18.10;70.60;;;;;;4957182;28;96607;-58
2022/06/03 04:34:01;;;;;;;1.42;1.05;;;18.20;70.20;;;;;;4963569;28;96289;-48
2022/06/03 04:36:40;;;;;;;1.02;0.60;;;18.20;70.20;;;;;;4944833;28;97340;-49
2022/06/03 04:39:25;;;;;;;1.05;0.95;;;18.30;70.50;;;;;;4961822;28;95994;-54
2022/06/03 04:42:32;;;;;;;17.83;1.15;;;18.30;70.70;;;;;;4962716;28;96163;-56
2022/06/03 04:45:34;;;;;;;2.38;0.77;;;18.40;71.10;;;;;;4964972;28;96510;-44
2022/06/03 04:48:36;;;;;;;0.85;0.63;;;18.40;71.20;;;;;;4982353;28;95878;-56
2022/06/03 04:51:18;;;;;;;;;;;18.60;71.30;;;;;;4981884;28;95713;-54
2022/06/03 04:54:18;;;;;;;0.52;0.52;;;18.70;71.00;;;;;;4983055;28;96588;-54
2022/06/03 04:57:14;;;;;;;1.17;0.50;;;18.90;69.00;;;;;;4982771;28;95699;-59
2022/06/03 05:00:20;;;;;;;0.77;0.60;;;19.00;69.40;;;;;;4981125;28;96271;-62
2022/06/03 05:03:15;;;;;;;1.27;0.75;;;19.10;69.20;;;;;;4961863;28;95925;-53
2022/06/03 05:06:31;;;;;;;0.70;0.70;;;19.30;69.10;;;;;;4962858;28;97581;-61
2022/06/03 05:09:33;;;;;;;1.13;0.77;;;19.30;69.00;;;;;;4962772;28;95996;-47
2022/06/03 05:12:25;;;;;;;0.77;0.60;;;19.40;66.90;;;;;;4962384;28;95305;-52
2022/06/03 05:15:04;;;;;;;;;;;19.50;66.20;;;;;;4962175;28;95929;-48
2022/06/03 05:17:43;;;;;;;0.88;0.60;;;19.60;65.50;;;;;;4959235;28;96010;-50
2022/06/03 05:20:51;;;;;;;1.92;1.10;;;19.70;65.30;;;;;;4964072;28;95695;-49
2022/06/03 05:23:33;;;;;;;7.07;0.98;;;19.60;64.70;;;;;;4964363;28;95687;-49
2022/06/03 05:26:31;;;;;;;1.00;0.70;;;19.40;64.00;;;;;;4963791;28;96199;-55
2022/06/03 05:29:36;;;;;;;1.20;0.70;;;19.20;64.40;;;;;;4961993;28;96734;-45
2022/06/03 05:32:25;;;;;;;1.27;0.80;;;19.10;63.70;;;;;;4970940;28;95965;-49
2022/06/03 05:35:18;;;;;;;1.40;0.90;;;19.00;64.90;;;;;;4983525;28;96012;-54
2022/06/03 05:38:09;;;;;;;0.70;0.70;;;18.90;65.10;;;;;;4982551;28;95372;-52
2022/06/03 05:41:00;;;;;;;0.80;0.80;;;18.80;65.10;;;;;;4981917;28;96579;-54
2022/06/03 05:44:00;;;;;;;1.77;0.70;;;18.70;65.30;;;;;;4982221;28;95417;-55
2022/06/03 05:47:15;;;;;;;1.48;0.98;;;18.70;65.50;;;;;;4959352;28;95999;-49
2022/06/03 05:50:03;;;;;;;1.85;1.10;;;18.70;65.80;;;;;;4984088;28;95711;-50
2022/06/03 05:52:47;;;;;;;1.95;1.13;;;18.60;65.70;;;;;;4984453;28;96561;-50
2022/06/03 05:55:27;;;;;;;1.65;0.68;;;18.60;65.40;;;;;;4983871;28;95990;-49
2022/06/03 05:58:37;;;;;;;0.80;0.70;;;18.60;65.40;;;;;;4984358;28;95276;-44
2022/06/03 06:01:41;;;;;;;1.38;0.93;;;18.40;65.70;;;;;;4978251;28;95357;-53
2022/06/03 06:04:54;;;;;;;2.15;0.63;;;18.40;66.10;;;;;;4982368;28;96551;-51
2022/06/03 06:07:51;;;;;;;1.95;1.10;;;18.40;66.00;;;;;;4982688;28;96328;-51
2022/06/03 06:11:05;;;;;;;1.13;0.80;;;18.40;66.00;;;;;;4981697;28;95758;-51
2022/06/03 06:14:14;;;;;;;0.93;0.77;;;18.30;66.00;;;;;;4983242;28;95427;-48
2022/06/03 06:16:49;;;;;;;1.65;0.90;;;18.30;66.00;;;;;;4931792;28;96666;-49
2022/06/03 06:19:47;;;;;;;1.42;0.90;;;18.20;66.20;;;;;;4982585;28;95848;-49
2022/06/03 06:22:27;;;;;;;3.05;1.15;;;18.20;66.20;;;;;;4980982;28;96444;-46
2022/06/03 06:25:11;;;;;;;1.05;0.93;;;18.10;66.50;;;;;;4983408;28;97707;-53
2022/06/03 06:28:04;;;;;;;1.17;0.80;;;18.10;66.50;;;;;;4980209;28;96472;-49
2022/06/03 06:31:10;;;;;;;0.68;0.60;;;18.00;66.80;;;;;;4958037;28;97267;-46
2022/06/03 06:34:31;;;;;;;0.90;0.70;;;18.00;66.90;;;;;;4982163;28;95924;-49
2022/06/03 06:37:08;;;;;;;1.48;0.73;;;18.00;67.10;;;;;;4981436;28;95898;-45
2022/06/03 06:39:48;;;;;;;1.10;0.88;;;17.90;67.20;;;;;;4981030;28;97841;-56
2022/06/03 06:42:45;;;;;;;1.20;1.03;;;17.90;67.30;;;;;;4982018;28;96407;-47
2022/06/03 06:45:23;;;;;;;0.68;0.65;;;17.80;67.30;;;;;;4983114;28;95730;-51
2022/06/03 06:48:00;;;;;;;1.63;1.05;;;17.80;67.50;;;;;;4987852;28;95395;-47
2022/06/03 06:50:47;;;;;;;0.85;0.70;;;17.70;67.50;;;;;;4986785;28;95672;-54
2022/06/03 06:53:38;;;;;;;2.10;1.02;;;17.70;67.50;;;;;;4985778;28;95438;-55
2022/06/03 06:56:35;;;;;;;0.75;0.75;;;17.70;67.60;;;;;;4986970;28;96000;-50
2022/06/03 06:59:42;;;;;;;0.98;0.88;;;17.70;67.60;;;;;;4971111;28;96595;-47
2022/06/03 07:02:36;;;;;;;2.20;0.93;;;17.70;67.70;;;;;;4969714;28;96032;-49
2022/06/03 07:05:49;;;;;;;1.35;0.93;;;17.60;67.70;;;;;;4986631;28;95592;-50
2022/06/03 07:08:24;;;;;;;0.77;0.60;;;17.70;67.80;;;;;;4941260;28;95425;-46
2022/06/03 07:11:13;;;;;;;1.70;1.00;;;17.60;67.70;;;;;;4984702;28;95753;-53
2022/06/03 07:14:18;;;;;;;1.27;0.80;;;17.60;67.70;;;;;;4985134;28;96746;-55
2022/06/03 07:20:32;;;;;;;1.90;1.02;;;17.60;67.60;;;;;;4985553;28;96160;-51
2022/06/03 07:23:32;;;;;;;1.15;0.75;;;17.60;67.50;;;;;;4939461;28;95976;-54
2022/06/03 07:26:35;;;;;;;1.08;0.90;;;17.60;67.40;;;;;;4984389;28;96473;-49
2022/06/03 07:29:19;;;;;;;0.55;0.55;;;17.60;67.40;;;;;;4979676;28;96215;-56
2022/06/03 07:31:49;;;;;;;0.88;0.70;;;17.60;67.40;;;;;;4978722;28;95798;-51
2022/06/03 07:34:19;;;;;;;1.40;0.80;;;17.50;67.30;;;;;;4985253;28;98231;-56
2022/06/03 07:37:04;;;;;;;1.10;0.65;;;17.50;66.70;;;;;;4984858;28;95970;-53
2022/06/03 07:40:03;;;;;;;1.05;0.60;;;17.50;67.40;;;;;;4983831;28;95876;-55
2022/06/03 07:42:50;;;;;;;1.52;0.82;;;17.50;67.40;;;;;;4983749;28;95859;-53
2022/06/03 07:45:36;;;;;;;0.90;0.73;;;17.40;67.50;;;;;;4979705;28;95762;-58
2022/06/03 07:48:23;;;;;;;2.35;1.15;;;17.40;67.60;;;;;;4983366;28;102735;-53
2022/06/03 07:51:00;;;;;;;2.72;0.75;;;17.40;68.20;;;;;;4965488;28;97815;-49
2022/06/03 07:53:51;;;;;;;1.52;0.68;;;17.40;67.60;;;;;;4968151;28;95698;-51
2022/06/03 07:56:37;;;;;;;1.40;0.70;;;17.30;67.60;;;;;;4982991;28;95927;-49
2022/06/03 07:59:21;;;;;;;0.60;0.60;;;17.40;67.60;;;;;;4983611;28;95899;-51
2022/06/03 08:02:16;;;;;;;1.67;0.85;;;17.30;67.60;;;;;;4976418;28;96020;-55
2022/06/03 08:04:59;;;;;;;0.73;0.73;;;17.30;67.70;;;;;;4985489;28;95648;-53
2022/06/03 08:13:19;;;;;;;1.55;0.88;;;17.20;67.70;;;;;;4983547;28;96664;-53
2022/06/03 08:16:05;;;;;;;1.02;0.70;;;17.20;67.90;;;;;;4977169;28;96386;-52
2022/06/03 08:18:42;;;;;;;0.88;0.82;;;17.20;67.90;;;;;;4983140;28;95833;-53
2022/06/03 08:21:36;;;;;;;2.67;0.82;;;17.20;68.00;;;;;;4984790;28;96363;-49
2022/06/03 08:24:14;;;;;;;0.95;0.77;;;17.20;68.00;;;;;;4982380;28;96006;-51
2022/06/03 08:26:51;;;;;;;2.15;1.45;;;17.20;68.10;;;;;;4966575;28;96264;-49
2022/06/03 08:29:45;;;;;;;3.38;1.85;;;17.20;68.10;;;;;;4984195;28;95890;-50
2022/06/03 08:32:20;;;;;;;2.58;1.90;;;17.10;68.30;;;;;;4976851;28;96015;-52
2022/06/03 08:34:55;;;;;;;2.47;2.00;;;17.10;68.40;;;;;;4982356;28;95982;-54
2022/06/03 08:37:34;;;;;;;5.05;2.53;;;17.10;68.40;;;;;;4984117;28;96523;-56
2022/06/03 08:40:16;;;;;;;5.85;2.67;;;17.20;68.70;;;;;;4983977;28;95960;-54
2022/06/03 08:42:58;;;;;;;7.95;4.25;;;17.10;68.90;;;;;;4982847;28;96777;-55
2022/06/03 08:45:56;;;;;;;7.35;3.53;;;17.10;69.00;;;;;;4978829;28;98318;-56
2022/06/03 08:48:35;;;;;;;10.15;5.65;;;17.20;69.20;;;;;;4983454;28;96512;-57
2022/06/03 08:51:16;;;;;;;11.18;6.40;;;17.10;69.40;;;;;;4983056;28;95656;-55
2022/06/03 08:53:58;;;;;;;13.25;6.65;;;17.20;69.60;;;;;;4984939;28;95806;-49
2022/06/03 08:56:36;;;;;;;12.23;7.32;;;17.10;69.50;;;;;;4985170;28;95347;-54
2022/06/03 08:59:22;;;;;;;17.48;7.72;;;17.10;69.70;;;;;;4983875;28;96407;-54
2022/06/03 09:02:04;;;;;;;14.13;7.60;;;17.10;69.80;;;;;;4978088;28;96471;-52
2022/06/03 09:05:29;;;;;;;16.75;7.93;;;17.00;69.90;;;;;;4983358;28;96181;-53
2022/06/03 09:08:37;;;;;;;10.68;6.93;;;17.00;70.00;;;;;;4979957;28;96025;-54
2022/06/03 09:11:26;;;;;;;10.73;6.90;;;16.90;70.10;;;;;;4983699;28;95703;-55
2022/06/03 09:14:08;;;;;;;12.52;7.30;;;16.90;70.20;;;;;;4984190;28;96470;-55
2022/06/03 09:16:41;;;;;;;14.38;8.10;;;16.90;70.20;;;;;;4977711;28;97235;-54
2022/06/03 09:19:20;;;;;;;12.52;6.45;;;16.90;70.20;;;;;;4981682;28;95323;-55
2022/06/03 09:21:52;;;;;;;12.02;7.18;;;16.90;70.30;;;;;;4969744;28;96722;-55
2022/06/03 09:24:31;;;;;;;11.60;6.07;;;16.80;70.30;;;;;;4980256;28;96080;-53
2022/06/03 09:27:04;;;;;;;10.95;6.13;;;16.80;70.30;;;;;;4979437;28;95852;-52
2022/06/03 09:29:40;;;;;;;10.68;5.97;;;16.70;70.40;;;;;;4980103;28;97845;-54
2022/06/03 09:32:12;;;;;;;10.82;6.00;;;16.70;70.50;;;;;;4975892;28;95703;-54
2022/06/03 09:34:48;;;;;;;14.30;6.17;;;16.70;70.50;;;;;;4982468;28;95644;-54
2022/06/03 09:37:35;;;;;;;11.45;6.10;;;16.70;70.60;;;;;;4980045;28;96085;-54
2022/06/03 09:40:13;;;;;;;10.38;5.45;;;16.60;70.60;;;;;;4978168;28;95862;-55
2022/06/03 09:42:59;;;;;;;10.30;5.90;;;16.60;70.70;;;;;;4981045;28;95900;-54
2022/06/03 09:45:32;;;;;;;10.20;5.30;;;16.50;70.70;;;;;;4977088;28;95846;-54
2022/06/03 09:48:05;;;;;;;11.75;5.60;;;16.50;70.90;;;;;;4981754;28;103011;-54
2022/06/03 09:50:37;;;;;;;8.65;5.15;;;16.50;70.90;;;;;;4963486;28;96290;-53
2022/06/03 09:53:17;;;;;;;10.93;5.68;;;16.40;70.90;;;;;;4982862;28;95830;-54
2022/06/03 09:56:03;;;;;;;8.40;5.40;;;16.40;71.10;;;;;;4982969;28;95821;-55
2022/06/03 09:58:36;;;;;;;11.23;5.18;;;16.40;71.00;;;;;;4981787;28;96351;-53
2022/06/03 10:01:10;;;;;;;9.00;5.38;;;16.40;71.10;;;;;;4976105;28;95948;-54
2022/06/03 10:03:43;;;;;;;9.65;4.93;;;16.40;71.10;;;;;;4983389;28;95377;-55
2022/06/03 10:15:37;;;;;;;6.33;4.13;;;16.30;71.30;;;;;;4978598;28;96032;-56
2022/06/03 10:17:41;;;;;;;7.57;4.05;;;16.20;71.20;;;;;;4974854;28;96717;-53
2022/06/03 10:20:13;;;;;;;7.75;4.05;;;16.20;71.30;;;;;;4985794;28;96489;-57
2022/06/03 10:22:48;;;;;;;;;;;16.20;71.90;;;;;;4985857;28;95874;-58
2022/06/03 10:25:20;;;;;;;5.60;3.20;;;16.20;71.70;;;;;;4987698;28;96183;-56
2022/06/03 10:27:51;;;;;;;5.72;3.67;;;16.30;71.40;;;;;;4986902;28;96544;-54
2022/06/03 10:30:31;;;;;;;6.70;3.83;;;16.30;71.00;;;;;;4980241;28;96126;-55
2022/06/03 10:33:03;;;;;;;3.97;2.67;;;16.30;70.90;;;;;;4986384;28;95486;-57
2022/06/03 10:35:41;;;;;;;3.97;2.50;;;16.30;70.80;;;;;;4987088;28;95308;-55
2022/06/03 10:38:18;;;;;;;5.55;2.65;;;16.40;70.80;;;;;;4986523;28;96267;-55
2022/06/03 10:40:52;;;;;;;5.25;2.65;;;16.40;71.00;;;;;;4985931;28;95911;-56
2022/06/03 10:43:31;;;;;;;5.25;2.78;;;16.40;70.90;;;;;;4985702;28;96427;-55
2022/06/03 10:46:20;;;;;;;3.67;2.35;;;16.40;70.60;;;;;;4980053;28;96650;-56
2022/06/03 10:48:54;;;;;;;3.80;1.98;;;16.40;70.40;;;;;;4984800;28;96047;-56
2022/06/03 11:03:27;;;;;;;2.63;1.55;;;16.60;70.10;;;;;;4986000;28;102367;-55
2022/06/03 11:06:17;;;;;;;5.32;2.03;;;16.60;70.40;;;;;;4990154;28;96069;-55
2022/06/03 11:09:00;;;;;;;3.83;1.80;;;16.60;70.50;;;;;;4987848;28;95549;-53
2022/06/03 11:11:46;;;;;;;3.53;1.92;;;16.60;70.60;;;;;;4990240;28;95858;-54
2022/06/03 11:14:25;;;;;;;3.75;1.88;;;16.60;70.90;;;;;;4988448;28;95863;-54
2022/06/03 11:17:12;;;;;;;7.88;1.73;;;16.60;71.00;;;;;;4961022;28;96925;-52
2022/06/03 11:19:56;;;;;;;3.05;1.55;;;16.60;71.10;;;;;;4967422;28;97113;-58
2022/06/03 11:22:40;;;;;;;3.55;1.70;;;16.60;71.20;;;;;;4966794;28;95769;-58
2022/06/03 11:25:46;;;;;;;2.83;1.58;;;16.60;71.40;;;;;;4964887;28;96147;-58
2022/06/03 11:28:23;;;;;;;2.13;1.42;;;16.60;71.30;;;;;;4945564;28;96121;-58
2022/06/03 11:31:41;;;;;;;2.17;1.27;;;16.60;71.30;;;;;;4959070;28;95800;-58
2022/06/03 11:34:22;;;;;;;1.77;1.33;;;16.60;71.00;;;;;;4980363;28;95339;-59
2022/06/03 11:37:01;;;;;;;3.15;1.50;;;16.50;71.10;;;;;;4984376;28;96376;-60
2022/06/03 11:39:44;;;;;;;1.33;1.10;;;16.50;70.90;;;;;;4986702;28;95694;-58
2022/06/03 11:42:22;;;;;;;3.83;1.67;;;16.50;70.80;;;;;;4987458;28;95884;-61
2022/06/03 11:45:05;;;;;;;2.78;1.33;;;16.40;70.70;;;;;;4989352;28;95832;-59
2022/06/03 11:47:54;;;;;;;3.65;1.33;;;16.40;70.70;;;;;;4980833;28;96031;-61
2022/06/03 11:50:29;;;;;;;1.48;1.30;;;16.40;70.60;;;;;;4982994;28;95659;-59
2022/06/03 11:53:00;;;;;;;2.60;1.58;;;16.40;70.70;;;;;;4980917;28;95795;-60
2022/06/03 11:55:33;;;;;;;1.85;1.08;;;16.40;70.60;;;;;;4981248;28;95724;-61
2022/06/03 11:58:34;;;;;;;2.33;1.33;;;16.40;70.40;;;;;;4982369;28;95732;-60
2022/06/03 12:01:12;;;;;;;1.85;1.00;;;16.30;70.80;;;;;;4943793;28;98138;-58
2022/06/03 12:04:06;;;;;;;2.33;1.33;;;16.30;70.60;;;;;;4974030;28;96987;-56
2022/06/03 12:06:56;;;;;;;3.97;1.20;;;16.30;71.10;;;;;;4961421;28;96410;-60
2022/06/03 12:10:03;;;;;;;1.73;1.02;;;16.30;71.20;;;;;;4977718;28;95922;-57
2022/06/03 12:15:42;;;;;;;1.85;1.15;;;16.30;71.20;;;;;;4974980;28;97039;-58
2022/06/03 12:18:13;;;;;;;1.67;0.98;;;16.30;71.20;;;;;;4977315;28;95339;-58
2022/06/03 12:20:49;;;;;;;2.05;1.38;;;16.30;71.20;;;;;;4984920;28;96439;-56
2022/06/03 12:23:22;;;;;;;1.33;1.23;;;16.30;71.30;;;;;;4980991;28;95830;-56
2022/06/03 12:26:06;;;;;;;1.58;1.30;;;16.30;71.50;;;;;;4986948;28;95652;-49
2022/06/03 12:28:42;;;;;;;1.55;1.42;;;16.30;71.50;;;;;;4984541;28;95929;-51
2022/06/03 12:31:21;;;;;;;1.85;1.05;;;16.40;71.50;;;;;;4975671;28;97976;-52
2022/06/03 12:34:11;;;;;;;2.13;1.30;;;16.40;70.30;;;;;;4976520;28;98428;-56
2022/06/03 12:36:53;;;;;;;1.20;0.90;;;16.40;71.60;;;;;;4974336;28;95270;-53
2022/06/03 12:39:34;;;;;;;1.42;0.98;;;16.40;71.60;;;;;;4977690;28;97227;-53
2022/06/03 12:42:45;;;;;;;1.63;1.17;;;16.30;71.60;;;;;;4974760;28;96069;-55
2022/06/03 12:45:33;;;;;;;1.50;1.23;;;16.30;71.70;;;;;;4951551;28;95878;-56
2022/06/03 12:48:45;;;;;;;0.80;0.80;;;16.30;71.70;;;;;;4981867;28;98304;-56
2022/06/03 12:51:23;;;;;;;2.58;1.20;;;16.30;71.70;;;;;;4986616;28;96112;-54
2022/06/03 12:53:59;;;;;;;1.83;1.30;;;16.30;71.70;;;;;;4985099;28;97818;-56
2022/06/03 12:56:48;;;;;;;1.63;1.33;;;16.20;71.60;;;;;;4982668;28;96107;-55
2022/06/03 12:59:27;;;;;;;1.30;0.95;;;16.20;71.50;;;;;;4983335;28;95865;-56
2022/06/03 13:02:21;;;;;;;2.05;1.17;;;16.20;71.50;;;;;;4978033;28;95715;-55
2022/06/03 13:04:59;;;;;;;1.52;0.90;;;16.20;71.40;;;;;;4983237;28;96421;-53
2022/06/03 13:07:36;;;;;;;1.25;1.15;;;16.20;71.50;;;;;;4986360;28;96421;-55
2022/06/03 13:10:08;;;;;;;1.10;0.90;;;16.20;71.40;;;;;;4984676;28;96123;-53
2022/06/03 13:12:41;;;;;;;1.63;1.05;;;16.20;71.30;;;;;;4984887;28;95949;-52
2022/06/03 13:15:19;;;;;;;1.38;1.10;;;16.20;71.20;;;;;;4980889;28;96501;-55
2022/06/03 13:21:10;;;;;;;3.17;1.35;;;16.20;71.80;;;;;;4984198;28;95885;-53
2022/06/03 13:23:46;;;;;;;1.58;1.10;;;16.20;71.20;;;;;;4959230;28;95866;-54
2022/06/03 13:26:23;;;;;;;2.33;1.10;;;16.10;71.20;;;;;;4985138;28;96437;-53
2022/06/03 13:29:01;;;;;;;1.20;1.10;;;16.10;71.10;;;;;;4979462;28;96074;-55
2022/06/03 13:31:41;;;;;;;1.23;1.00;;;16.10;71.10;;;;;;4979418;28;95967;-50
2022/06/03 13:34:11;;;;;;;1.10;1.00;;;16.10;71.20;;;;;;4983254;28;95921;-52
2022/06/03 13:36:52;;;;;;;2.95;1.17;;;16.10;71.10;;;;;;4983989;28;96675;-50
2022/06/03 13:39:29;;;;;;;1.27;1.05;;;16.00;71.10;;;;;;4985189;28;95818;-55
2022/06/03 13:45:04;;;;;;;1.88;1.00;;;16.10;71.10;;;;;;4981357;28;95853;-54
2022/06/03 13:47:50;;;;;;;1.67;1.00;;;16.00;71.10;;;;;;4978739;28;96429;-53
2022/06/03 13:50:30;;;;;;;2.05;1.10;;;16.00;71.10;;;;;;4982474;28;95996;-55
2022/06/03 13:53:07;;;;;;;1.55;0.98;;;16.00;71.10;;;;;;4987465;28;95400;-52
2022/06/03 13:55:41;;;;;;;1.95;0.90;;;16.00;71.70;;;;;;4988539;28;95403;-52
2022/06/03 13:58:19;;;;;;;0.95;0.95;;;16.00;71.20;;;;;;4988113;28;95869;-53
2022/06/03 14:00:54;;;;;;;1.27;1.10;;;15.90;71.10;;;;;;4979328;28;95831;-53
2022/06/03 14:03:41;;;;;;;2.15;1.15;;;16.00;69.70;;;;;;4968686;28;95811;-54
2022/06/03 14:06:46;;;;;;;1.38;1.10;;;15.90;71.20;;;;;;4964472;28;95785;-53
2022/06/03 14:09:28;;;;;;;1.30;1.20;;;15.90;71.20;;;;;;4937362;28;98689;-51
2022/06/03 14:12:38;;;;;;;1.95;1.13;;;15.90;71.20;;;;;;4970990;28;95272;-51
2022/06/03 14:15:26;;;;;;;1.52;1.00;;;15.90;71.50;;;;;;4961032;28;97032;-50
2022/06/03 14:18:00;;;;;;;2.22;1.10;;;15.90;71.40;;;;;;4968033;28;95777;-49
2022/06/03 14:20:52;;;;;;;2.35;1.05;;;15.90;71.40;;;;;;4964918;28;96516;-49
2022/06/03 14:23:40;;;;;;;1.88;1.02;;;15.80;71.50;;;;;;4958176;28;95870;-50
2022/06/03 14:26:19;;;;;;;1.52;1.42;;;15.80;72.20;;;;;;4966480;28;96596;-52
2022/06/03 14:29:17;;;;;;;3.00;1.17;;;15.80;72.60;;;;;;4967025;28;95342;-49
2022/06/03 14:32:10;;;;;;;1.48;1.20;;;15.80;72.60;;;;;;4962157;28;97194;-53
2022/06/03 14:34:50;;;;;;;6.40;1.70;;;15.80;72.70;;;;;;4969667;28;97856;-52
2022/06/03 14:37:31;;;;;;;5.55;1.45;;;15.70;72.70;;;;;;4969210;28;95882;-51
2022/06/03 14:40:07;;;;;;;1.67;0.98;;;15.70;72.90;;;;;;4970700;28;96274;-50
2022/06/03 14:42:43;;;;;;;2.47;1.30;;;15.70;73.00;;;;;;4970223;28;95872;-49
2022/06/03 14:45:15;;;;;;;3.58;1.48;;;15.70;73.10;;;;;;4970750;28;95874;-52
2022/06/03 14:48:02;;;;;;;1.95;1.48;;;15.70;73.10;;;;;;4968334;28;96002;-49
2022/06/03 14:50:40;;;;;;;6.53;1.58;;;15.60;73.10;;;;;;4970037;28;95943;-51
2022/06/03 14:53:20;;;;;;;3.45;1.48;;;15.60;73.30;;;;;;4969705;28;96014;-49
2022/06/03 14:56:05;;;;;;;1.27;1.15;;;15.60;73.30;;;;;;4969241;28;95678;-53
2022/06/03 14:58:50;;;;;;;3.97;1.48;;;15.60;73.40;;;;;;4970155;28;95399;-50
2022/06/03 15:01:44;;;;;;;1.70;1.25;;;15.60;73.50;;;;;;4963635;28;96015;-52
2022/06/03 15:04:25;;;;;;;2.28;1.40;;;15.50;73.50;;;;;;4969492;28;96362;-52
2022/06/03 15:07:05;;;;;;;1.35;1.00;;;15.50;73.50;;;;;;4970824;28;96871;-54
2022/06/03 15:09:50;;;;;;;3.60;1.40;;;15.50;73.60;;;;;;4967538;28;95712;-51
2022/06/03 15:12:25;;;;;;;2.10;1.30;;;15.50;73.70;;;;;;4968955;28;95741;-51
2022/06/03 15:14:57;;;;;;;2.83;1.27;;;15.40;73.70;;;;;;4968720;28;96094;-47
2022/06/03 15:17:36;;;;;;;2.55;1.25;;;15.40;73.70;;;;;;4966660;28;95457;-48